sensor_id;sensor_type;location;lat;lon;timestamp;P1;durP1;ratioP1;P2;durP2;ratioP2
34278;SDS011;20538;51.528;9.942;2023-07-28T00:01:38;3.42;;;0.70;;
34278;SDS011;20538;51.528;9.942;2023-07-28T00:04:03;2.25;;;1.05;;
34278;SDS011;20538;51.528;9.942;2023-07-28T00:06:32;3.88;;;0.70;;
34278;SDS011;20538;51.528;9.942;2023-07-28T00:08:58;2.08;;;0.70;;
34278;SDS011;20538;51.528;9.942;2023-07-28T00:11:23;3.03;;;0.82;;
34278;SDS011;20538;51.528;9.942;2023-07-28T00:13:49;4.75;;;0.90;;
34278;SDS011;20538;51.528;9.942;2023-07-28T00:16:14;2.33;;;1.00;;
34278;SDS011;20538;51.528;9.942;2023-07-28T00:18:40;7.03;;;1.30;;
34278;SDS011;20538;51.528;9.942;2023-07-28T00:21:06;2.05;;;1.00;;
34278;SDS011;20538;51.528;9.942;2023-07-28T00:23:31;2.00;;;0.98;;
34278;SDS011;20538;51.528;9.942;2023-07-28T00:25:57;6.65;;;1.20;;
34278;SDS011;20538;51.528;9.942;2023-07-28T00:28:22;6.82;;;1.45;;
34278;SDS011;20538;51.528;9.942;2023-07-28T00:30:48;6.13;;;1.05;;
34278;SDS011;20538;51.528;9.942;2023-07-28T00:33:15;3.90;;;0.93;;
34278;SDS011;20538;51.528;9.942;2023-07-28T00:35:40;1.80;;;0.95;;
34278;SDS011;20538;51.528;9.942;2023-07-28T00:38:06;3.63;;;1.10;;
34278;SDS011;20538;51.528;9.942;2023-07-28T00:40:32;2.78;;;1.00;;
34278;SDS011;20538;51.528;9.942;2023-07-28T00:42:57;3.15;;;1.10;;
34278;SDS011;20538;51.528;9.942;2023-07-28T00:45:23;6.53;;;0.95;;
34278;SDS011;20538;51.528;9.942;2023-07-28T00:47:49;6.20;;;1.10;;
34278;SDS011;20538;51.528;9.942;2023-07-28T00:50:14;4.15;;;1.17;;
34278;SDS011;20538;51.528;9.942;2023-07-28T00:52:40;2.33;;;0.90;;
34278;SDS011;20538;51.528;9.942;2023-07-28T00:55:06;4.18;;;1.05;;
34278;SDS011;20538;51.528;9.942;2023-07-28T00:57:33;5.95;;;1.10;;
34278;SDS011;20538;51.528;9.942;2023-07-28T00:59:59;2.50;;;1.02;;
34278;SDS011;20538;51.528;9.942;2023-07-28T01:02:25;2.40;;;1.15;;
34278;SDS011;20538;51.528;9.942;2023-07-28T01:04:51;4.00;;;1.58;;
34278;SDS011;20538;51.528;9.942;2023-07-28T01:07:22;2.60;;;1.00;;
34278;SDS011;20538;51.528;9.942;2023-07-28T01:10:13;6.75;;;1.00;;
34278;SDS011;20538;51.528;9.942;2023-07-28T01:12:40;4.55;;;1.10;;
34278;SDS011;20538;51.528;9.942;2023-07-28T01:15:05;4.00;;;1.05;;
34278;SDS011;20538;51.528;9.942;2023-07-28T01:17:31;7.20;;;1.00;;
34278;SDS011;20538;51.528;9.942;2023-07-28T01:19:57;2.60;;;1.08;;
34278;SDS011;20538;51.528;9.942;2023-07-28T01:22:35;7.38;;;1.00;;
34278;SDS011;20538;51.528;9.942;2023-07-28T01:27:57;6.40;;;1.20;;
34278;SDS011;20538;51.528;9.942;2023-07-28T01:30:25;3.17;;;0.82;;
34278;SDS011;20538;51.528;9.942;2023-07-28T01:32:53;3.00;;;1.10;;
34278;SDS011;20538;51.528;9.942;2023-07-28T01:35:20;2.13;;;1.23;;
34278;SDS011;20538;51.528;9.942;2023-07-28T01:37:46;4.07;;;1.17;;
34278;SDS011;20538;51.528;9.942;2023-07-28T01:40:15;5.55;;;1.17;;
34278;SDS011;20538;51.528;9.942;2023-07-28T01:42:41;2.33;;;1.00;;
34278;SDS011;20538;51.528;9.942;2023-07-28T01:45:07;6.28;;;1.27;;
34278;SDS011;20538;51.528;9.942;2023-07-28T01:47:33;4.15;;;1.17;;
34278;SDS011;20538;51.528;9.942;2023-07-28T01:49:59;2.65;;;1.05;;
34278;SDS011;20538;51.528;9.942;2023-07-28T01:52:24;6.75;;;1.23;;
34278;SDS011;20538;51.528;9.942;2023-07-28T01:54:50;2.53;;;1.10;;
34278;SDS011;20538;51.528;9.942;2023-07-28T01:57:16;7.47;;;1.65;;
34278;SDS011;20538;51.528;9.942;2023-07-28T01:59:42;3.13;;;1.20;;
34278;SDS011;20538;51.528;9.942;2023-07-28T02:02:07;7.38;;;1.15;;
34278;SDS011;20538;51.528;9.942;2023-07-28T02:04:33;4.97;;;1.05;;
34278;SDS011;20538;51.528;9.942;2023-07-28T02:06:58;3.33;;;1.20;;
34278;SDS011;20538;51.528;9.942;2023-07-28T02:09:24;3.90;;;1.13;;
34278;SDS011;20538;51.528;9.942;2023-07-28T02:11:49;5.97;;;1.30;;
34278;SDS011;20538;51.528;9.942;2023-07-28T02:14:15;4.57;;;1.10;;
34278;SDS011;20538;51.528;9.942;2023-07-28T02:16:41;4.88;;;1.30;;
34278;SDS011;20538;51.528;9.942;2023-07-28T02:19:06;2.35;;;1.25;;
34278;SDS011;20538;51.528;9.942;2023-07-28T02:21:32;1.17;;;0.77;;
34278;SDS011;20538;51.528;9.942;2023-07-28T02:23:59;4.22;;;0.90;;
34278;SDS011;20538;51.528;9.942;2023-07-28T02:26:25;6.85;;;1.27;;
34278;SDS011;20538;51.528;9.942;2023-07-28T02:28:51;3.03;;;0.70;;
34278;SDS011;20538;51.528;9.942;2023-07-28T02:31:16;3.08;;;1.20;;
34278;SDS011;20538;51.528;9.942;2023-07-28T02:33:42;1.60;;;1.02;;
34278;SDS011;20538;51.528;9.942;2023-07-28T02:36:07;3.90;;;0.82;;
34278;SDS011;20538;51.528;9.942;2023-07-28T02:38:33;2.50;;;1.00;;
34278;SDS011;20538;51.528;9.942;2023-07-28T02:40:59;2.08;;;1.13;;
34278;SDS011;20538;51.528;9.942;2023-07-28T02:43:24;2.33;;;0.90;;
34278;SDS011;20538;51.528;9.942;2023-07-28T02:45:54;4.65;;;1.58;;
34278;SDS011;20538;51.528;9.942;2023-07-28T02:48:20;3.65;;;0.98;;
34278;SDS011;20538;51.528;9.942;2023-07-28T02:50:48;4.25;;;0.90;;
34278;SDS011;20538;51.528;9.942;2023-07-28T02:53:16;6.30;;;0.85;;
34278;SDS011;20538;51.528;9.942;2023-07-28T02:55:42;3.40;;;1.00;;
34278;SDS011;20538;51.528;9.942;2023-07-28T02:58:09;2.95;;;1.20;;
34278;SDS011;20538;51.528;9.942;2023-07-28T03:00:39;2.17;;;0.68;;
34278;SDS011;20538;51.528;9.942;2023-07-28T03:03:05;6.03;;;1.52;;
34278;SDS011;20538;51.528;9.942;2023-07-28T03:05:32;2.75;;;0.80;;
34278;SDS011;20538;51.528;9.942;2023-07-28T03:07:57;2.03;;;0.80;;
34278;SDS011;20538;51.528;9.942;2023-07-28T03:10:23;2.55;;;0.90;;
34278;SDS011;20538;51.528;9.942;2023-07-28T03:12:49;2.08;;;1.00;;
34278;SDS011;20538;51.528;9.942;2023-07-28T03:15:14;4.55;;;0.95;;
34278;SDS011;20538;51.528;9.942;2023-07-28T03:17:40;2.17;;;1.00;;
34278;SDS011;20538;51.528;9.942;2023-07-28T03:20:06;2.60;;;0.90;;
34278;SDS011;20538;51.528;9.942;2023-07-28T03:22:32;3.63;;;1.40;;
34278;SDS011;20538;51.528;9.942;2023-07-28T03:24:57;2.95;;;1.20;;
34278;SDS011;20538;51.528;9.942;2023-07-28T03:27:23;3.78;;;1.15;;
34278;SDS011;20538;51.528;9.942;2023-07-28T03:29:49;1.10;;;1.00;;
34278;SDS011;20538;51.528;9.942;2023-07-28T03:32:15;3.80;;;0.82;;
34278;SDS011;20538;51.528;9.942;2023-07-28T03:34:41;1.55;;;1.00;;
34278;SDS011;20538;51.528;9.942;2023-07-28T03:37:06;2.80;;;1.08;;
34278;SDS011;20538;51.528;9.942;2023-07-28T03:39:32;4.03;;;1.10;;
34278;SDS011;20538;51.528;9.942;2023-07-28T03:41:58;2.53;;;0.90;;
34278;SDS011;20538;51.528;9.942;2023-07-28T03:44:23;5.38;;;1.33;;
34278;SDS011;20538;51.528;9.942;2023-07-28T03:46:49;2.70;;;1.02;;
34278;SDS011;20538;51.528;9.942;2023-07-28T03:49:15;1.83;;;1.10;;
34278;SDS011;20538;51.528;9.942;2023-07-28T03:51:40;2.70;;;0.90;;
34278;SDS011;20538;51.528;9.942;2023-07-28T03:54:06;3.40;;;1.10;;
34278;SDS011;20538;51.528;9.942;2023-07-28T03:56:31;5.22;;;1.20;;
34278;SDS011;20538;51.528;9.942;2023-07-28T03:58:57;5.68;;;1.30;;
34278;SDS011;20538;51.528;9.942;2023-07-28T04:01:22;3.95;;;1.20;;
34278;SDS011;20538;51.528;9.942;2023-07-28T04:03:49;2.92;;;1.15;;
34278;SDS011;20538;51.528;9.942;2023-07-28T04:06:15;5.13;;;1.20;;
34278;SDS011;20538;51.528;9.942;2023-07-28T04:08:41;1.95;;;1.00;;
34278;SDS011;20538;51.528;9.942;2023-07-28T04:11:06;4.68;;;1.15;;
34278;SDS011;20538;51.528;9.942;2023-07-28T04:13:33;2.10;;;1.20;;
34278;SDS011;20538;51.528;9.942;2023-07-28T04:15:59;5.57;;;1.20;;
34278;SDS011;20538;51.528;9.942;2023-07-28T04:18:25;2.75;;;1.25;;
34278;SDS011;20538;51.528;9.942;2023-07-28T04:20:51;5.68;;;1.40;;
34278;SDS011;20538;51.528;9.942;2023-07-28T04:23:17;4.75;;;1.45;;
34278;SDS011;20538;51.528;9.942;2023-07-28T04:25:42;4.03;;;1.48;;
34278;SDS011;20538;51.528;9.942;2023-07-28T04:28:08;4.22;;;1.27;;
34278;SDS011;20538;51.528;9.942;2023-07-28T04:30:34;4.22;;;1.17;;
34278;SDS011;20538;51.528;9.942;2023-07-28T04:32:59;2.47;;;1.10;;
34278;SDS011;20538;51.528;9.942;2023-07-28T04:35:25;3.80;;;1.13;;
34278;SDS011;20538;51.528;9.942;2023-07-28T04:37:51;3.15;;;1.02;;
34278;SDS011;20538;51.528;9.942;2023-07-28T04:40:16;1.77;;;1.17;;
34278;SDS011;20538;51.528;9.942;2023-07-28T04:42:42;1.95;;;1.15;;
34278;SDS011;20538;51.528;9.942;2023-07-28T04:45:07;1.65;;;1.20;;
34278;SDS011;20538;51.528;9.942;2023-07-28T04:47:33;2.28;;;1.20;;
34278;SDS011;20538;51.528;9.942;2023-07-28T04:49:59;2.50;;;1.25;;
34278;SDS011;20538;51.528;9.942;2023-07-28T04:52:25;3.95;;;1.20;;
34278;SDS011;20538;51.528;9.942;2023-07-28T04:54:51;3.42;;;1.10;;
34278;SDS011;20538;51.528;9.942;2023-07-28T04:57:16;3.38;;;1.10;;
34278;SDS011;20538;51.528;9.942;2023-07-28T04:59:44;6.28;;;1.50;;
34278;SDS011;20538;51.528;9.942;2023-07-28T05:02:09;2.00;;;1.17;;
34278;SDS011;20538;51.528;9.942;2023-07-28T05:04:35;2.42;;;1.10;;
34278;SDS011;20538;51.528;9.942;2023-07-28T05:07:02;2.92;;;1.10;;
34278;SDS011;20538;51.528;9.942;2023-07-28T05:09:28;1.55;;;0.93;;
34278;SDS011;20538;51.528;9.942;2023-07-28T05:11:54;2.60;;;1.17;;
34278;SDS011;20538;51.528;9.942;2023-07-28T05:14:20;2.15;;;0.90;;
34278;SDS011;20538;51.528;9.942;2023-07-28T05:16:46;2.85;;;0.90;;
34278;SDS011;20538;51.528;9.942;2023-07-28T05:19:12;1.65;;;0.68;;
34278;SDS011;20538;51.528;9.942;2023-07-28T05:21:38;1.55;;;1.02;;
34278;SDS011;20538;51.528;9.942;2023-07-28T05:24:03;4.88;;;0.80;;
34278;SDS011;20538;51.528;9.942;2023-07-28T05:26:29;0.88;;;0.60;;
34278;SDS011;20538;51.528;9.942;2023-07-28T05:28:55;1.70;;;0.88;;
34278;SDS011;20538;51.528;9.942;2023-07-28T05:31:21;2.22;;;0.90;;
34278;SDS011;20538;51.528;9.942;2023-07-28T05:33:46;1.52;;;0.90;;
34278;SDS011;20538;51.528;9.942;2023-07-28T05:36:12;1.73;;;0.80;;
34278;SDS011;20538;51.528;9.942;2023-07-28T05:38:38;2.75;;;0.95;;
34278;SDS011;20538;51.528;9.942;2023-07-28T05:41:04;1.85;;;0.63;;
34278;SDS011;20538;51.528;9.942;2023-07-28T05:43:30;0.82;;;0.60;;
34278;SDS011;20538;51.528;9.942;2023-07-28T05:45:57;0.73;;;0.52;;
34278;SDS011;20538;51.528;9.942;2023-07-28T05:48:23;2.25;;;0.95;;
34278;SDS011;20538;51.528;9.942;2023-07-28T05:50:51;0.77;;;0.60;;
34278;SDS011;20538;51.528;9.942;2023-07-28T05:53:19;2.15;;;0.90;;
34278;SDS011;20538;51.528;9.942;2023-07-28T05:55:46;0.93;;;0.60;;
34278;SDS011;20538;51.528;9.942;2023-07-28T05:58:12;3.15;;;1.23;;
34278;SDS011;20538;51.528;9.942;2023-07-28T06:00:40;1.48;;;0.60;;
34278;SDS011;20538;51.528;9.942;2023-07-28T06:03:07;3.65;;;0.70;;
34278;SDS011;20538;51.528;9.942;2023-07-28T06:05:35;1.25;;;0.63;;
34278;SDS011;20538;51.528;9.942;2023-07-28T06:08:00;6.40;;;0.80;;
34278;SDS011;20538;51.528;9.942;2023-07-28T06:10:26;0.65;;;0.65;;
34278;SDS011;20538;51.528;9.942;2023-07-28T06:12:51;3.50;;;0.90;;
34278;SDS011;20538;51.528;9.942;2023-07-28T06:15:17;1.83;;;0.70;;
34278;SDS011;20538;51.528;9.942;2023-07-28T06:17:42;3.72;;;0.90;;
34278;SDS011;20538;51.528;9.942;2023-07-28T06:20:08;4.35;;;0.80;;
34278;SDS011;20538;51.528;9.942;2023-07-28T06:22:35;2.42;;;1.10;;
34278;SDS011;20538;51.528;9.942;2023-07-28T06:25:00;2.33;;;0.80;;
34278;SDS011;20538;51.528;9.942;2023-07-28T06:27:26;5.05;;;0.95;;
34278;SDS011;20538;51.528;9.942;2023-07-28T06:29:52;3.25;;;2.22;;
34278;SDS011;20538;51.528;9.942;2023-07-28T06:32:18;1.25;;;0.77;;
34278;SDS011;20538;51.528;9.942;2023-07-28T06:34:45;3.35;;;0.70;;
34278;SDS011;20538;51.528;9.942;2023-07-28T06:37:11;1.17;;;0.82;;
34278;SDS011;20538;51.528;9.942;2023-07-28T06:39:36;2.80;;;0.60;;
34278;SDS011;20538;51.528;9.942;2023-07-28T06:42:02;1.42;;;0.70;;
34278;SDS011;20538;51.528;9.942;2023-07-28T06:44:28;1.52;;;0.63;;
34278;SDS011;20538;51.528;9.942;2023-07-28T06:46:57;1.75;;;0.90;;
34278;SDS011;20538;51.528;9.942;2023-07-28T06:49:22;2.15;;;0.60;;
34278;SDS011;20538;51.528;9.942;2023-07-28T06:51:48;2.42;;;0.70;;
34278;SDS011;20538;51.528;9.942;2023-07-28T06:54:14;2.75;;;0.73;;
34278;SDS011;20538;51.528;9.942;2023-07-28T06:56:40;0.70;;;0.50;;
34278;SDS011;20538;51.528;9.942;2023-07-28T06:59:06;1.42;;;0.80;;
34278;SDS011;20538;51.528;9.942;2023-07-28T07:01:32;2.05;;;0.82;;
34278;SDS011;20538;51.528;9.942;2023-07-28T07:03:58;0.45;;;0.40;;
34278;SDS011;20538;51.528;9.942;2023-07-28T07:06:27;2.95;;;0.88;;
34278;SDS011;20538;51.528;9.942;2023-07-28T07:08:52;3.08;;;0.80;;
34278;SDS011;20538;51.528;9.942;2023-07-28T07:11:18;2.08;;;0.65;;
34278;SDS011;20538;51.528;9.942;2023-07-28T07:13:44;1.80;;;0.35;;
34278;SDS011;20538;51.528;9.942;2023-07-28T07:16:18;1.10;;;0.70;;
34278;SDS011;20538;51.528;9.942;2023-07-28T07:18:44;0.57;;;0.50;;
34278;SDS011;20538;51.528;9.942;2023-07-28T07:21:09;2.55;;;0.95;;
34278;SDS011;20538;51.528;9.942;2023-07-28T07:23:35;1.88;;;0.60;;
34278;SDS011;20538;51.528;9.942;2023-07-28T07:26:02;4.90;;;0.90;;
34278;SDS011;20538;51.528;9.942;2023-07-28T07:28:28;2.22;;;0.70;;
34278;SDS011;20538;51.528;9.942;2023-07-28T07:30:57;1.95;;;0.75;;
34278;SDS011;20538;51.528;9.942;2023-07-28T07:33:23;1.20;;;0.98;;
34278;SDS011;20538;51.528;9.942;2023-07-28T07:35:49;2.15;;;0.80;;
34278;SDS011;20538;51.528;9.942;2023-07-28T07:38:15;2.55;;;0.88;;
34278;SDS011;20538;51.528;9.942;2023-07-28T07:40:40;0.63;;;0.60;;
34278;SDS011;20538;51.528;9.942;2023-07-28T07:43:06;2.88;;;0.90;;
34278;SDS011;20538;51.528;9.942;2023-07-28T07:45:32;0.88;;;0.85;;
34278;SDS011;20538;51.528;9.942;2023-07-28T07:47:58;2.70;;;0.82;;
34278;SDS011;20538;51.528;9.942;2023-07-28T07:50:24;0.95;;;0.65;;
34278;SDS011;20538;51.528;9.942;2023-07-28T07:52:50;2.05;;;1.10;;
34278;SDS011;20538;51.528;9.942;2023-07-28T07:55:16;1.67;;;0.90;;
34278;SDS011;20538;51.528;9.942;2023-07-28T07:57:41;4.50;;;0.90;;
34278;SDS011;20538;51.528;9.942;2023-07-28T08:00:07;5.85;;;1.38;;
34278;SDS011;20538;51.528;9.942;2023-07-28T08:02:34;2.38;;;1.10;;
34278;SDS011;20538;51.528;9.942;2023-07-28T08:05:02;1.92;;;1.00;;
34278;SDS011;20538;51.528;9.942;2023-07-28T08:07:28;4.45;;;1.10;;
34278;SDS011;20538;51.528;9.942;2023-07-28T08:09:54;3.90;;;1.70;;
34278;SDS011;20538;51.528;9.942;2023-07-28T08:12:19;3.17;;;0.93;;
34278;SDS011;20538;51.528;9.942;2023-07-28T08:14:45;3.80;;;0.80;;
34278;SDS011;20538;51.528;9.942;2023-07-28T08:17:11;1.92;;;0.80;;
34278;SDS011;20538;51.528;9.942;2023-07-28T08:19:37;2.67;;;1.02;;
34278;SDS011;20538;51.528;9.942;2023-07-28T08:22:02;1.33;;;1.00;;
34278;SDS011;20538;51.528;9.942;2023-07-28T08:24:28;2.15;;;1.10;;
34278;SDS011;20538;51.528;9.942;2023-07-28T08:26:54;3.53;;;0.90;;
34278;SDS011;20538;51.528;9.942;2023-07-28T08:29:20;3.03;;;0.73;;
34278;SDS011;20538;51.528;9.942;2023-07-28T08:31:46;2.40;;;1.30;;
34278;SDS011;20538;51.528;9.942;2023-07-28T08:34:12;2.38;;;1.17;;
34278;SDS011;20538;51.528;9.942;2023-07-28T08:36:37;4.05;;;1.38;;
34278;SDS011;20538;51.528;9.942;2023-07-28T08:39:03;1.88;;;0.98;;
34278;SDS011;20538;51.528;9.942;2023-07-28T08:41:30;3.55;;;1.00;;
34278;SDS011;20538;51.528;9.942;2023-07-28T08:43:55;4.72;;;1.05;;
34278;SDS011;20538;51.528;9.942;2023-07-28T08:46:22;3.70;;;1.45;;
34278;SDS011;20538;51.528;9.942;2023-07-28T08:48:48;4.60;;;1.35;;
34278;SDS011;20538;51.528;9.942;2023-07-28T08:51:14;1.92;;;1.20;;
34278;SDS011;20538;51.528;9.942;2023-07-28T08:53:39;2.15;;;0.90;;
34278;SDS011;20538;51.528;9.942;2023-07-28T08:56:05;1.52;;;1.33;;
34278;SDS011;20538;51.528;9.942;2023-07-28T08:58:31;1.25;;;0.90;;
34278;SDS011;20538;51.528;9.942;2023-07-28T09:00:57;1.15;;;0.90;;
34278;SDS011;20538;51.528;9.942;2023-07-28T09:03:26;4.18;;;1.27;;
34278;SDS011;20538;51.528;9.942;2023-07-28T09:05:53;2.63;;;1.08;;
34278;SDS011;20538;51.528;9.942;2023-07-28T09:08:27;2.22;;;1.05;;
34278;SDS011;20538;51.528;9.942;2023-07-28T09:10:55;1.13;;;0.85;;
34278;SDS011;20538;51.528;9.942;2023-07-28T09:13:21;1.45;;;0.93;;
34278;SDS011;20538;51.528;9.942;2023-07-28T09:15:47;1.08;;;0.70;;
34278;SDS011;20538;51.528;9.942;2023-07-28T09:18:13;1.30;;;0.70;;
34278;SDS011;20538;51.528;9.942;2023-07-28T09:20:41;8.82;;;1.13;;
34278;SDS011;20538;51.528;9.942;2023-07-28T09:23:08;3.53;;;0.95;;
34278;SDS011;20538;51.528;9.942;2023-07-28T09:25:37;3.92;;;1.08;;
34278;SDS011;20538;51.528;9.942;2023-07-28T09:28:03;2.22;;;0.98;;
34278;SDS011;20538;51.528;9.942;2023-07-28T09:30:48;3.42;;;1.02;;
34278;SDS011;20538;51.528;9.942;2023-07-28T09:33:20;2.60;;;0.90;;
34278;SDS011;20538;51.528;9.942;2023-07-28T09:35:55;3.03;;;1.10;;
34278;SDS011;20538;51.528;9.942;2023-07-28T09:38:20;1.55;;;1.10;;
34278;SDS011;20538;51.528;9.942;2023-07-28T09:40:47;0.77;;;0.75;;
34278;SDS011;20538;51.528;9.942;2023-07-28T09:43:14;3.25;;;0.90;;
34278;SDS011;20538;51.528;9.942;2023-07-28T09:45:40;2.17;;;1.00;;
34278;SDS011;20538;51.528;9.942;2023-07-28T09:48:08;1.45;;;1.10;;
34278;SDS011;20538;51.528;9.942;2023-07-28T09:50:36;1.08;;;1.00;;
34278;SDS011;20538;51.528;9.942;2023-07-28T09:53:03;1.23;;;0.88;;
34278;SDS011;20538;51.528;9.942;2023-07-28T09:55:29;1.33;;;1.00;;
34278;SDS011;20538;51.528;9.942;2023-07-28T09:57:55;2.60;;;0.98;;
34278;SDS011;20538;51.528;9.942;2023-07-28T10:00:24;1.23;;;0.90;;
34278;SDS011;20538;51.528;9.942;2023-07-28T10:02:51;1.60;;;1.05;;
34278;SDS011;20538;51.528;9.942;2023-07-28T10:05:18;3.22;;;1.00;;
34278;SDS011;20538;51.528;9.942;2023-07-28T10:07:46;1.35;;;1.05;;
34278;SDS011;20538;51.528;9.942;2023-07-28T10:10:14;3.35;;;1.00;;
34278;SDS011;20538;51.528;9.942;2023-07-28T10:15:17;5.30;;;1.60;;
34278;SDS011;20538;51.528;9.942;2023-07-28T10:17:50;4.22;;;1.33;;
34278;SDS011;20538;51.528;9.942;2023-07-28T10:23:11;2.05;;;1.15;;
34278;SDS011;20538;51.528;9.942;2023-07-28T10:25:47;3.20;;;1.20;;
34278;SDS011;20538;51.528;9.942;2023-07-28T10:28:38;3.03;;;1.85;;
34278;SDS011;20538;51.528;9.942;2023-07-28T10:31:08;2.15;;;1.30;;
34278;SDS011;20538;51.528;9.942;2023-07-28T10:36:11;1.98;;;1.70;;
34278;SDS011;20538;51.528;9.942;2023-07-28T10:38:41;2.47;;;1.58;;
34278;SDS011;20538;51.528;9.942;2023-07-28T10:41:17;1.77;;;1.60;;
34278;SDS011;20538;51.528;9.942;2023-07-28T10:43:44;1.70;;;1.60;;
34278;SDS011;20538;51.528;9.942;2023-07-28T10:46:11;4.05;;;1.80;;
34278;SDS011;20538;51.528;9.942;2023-07-28T10:48:43;2.25;;;1.48;;
34278;SDS011;20538;51.528;9.942;2023-07-28T10:51:11;3.92;;;1.73;;
34278;SDS011;20538;51.528;9.942;2023-07-28T10:53:37;4.20;;;1.67;;
34278;SDS011;20538;51.528;9.942;2023-07-28T10:56:03;4.43;;;1.75;;
34278;SDS011;20538;51.528;9.942;2023-07-28T10:58:32;2.60;;;2.13;;
34278;SDS011;20538;51.528;9.942;2023-07-28T11:01:00;3.42;;;2.05;;
34278;SDS011;20538;51.528;9.942;2023-07-28T11:03:27;4.38;;;2.03;;
34278;SDS011;20538;51.528;9.942;2023-07-28T11:05:54;4.15;;;2.17;;
34278;SDS011;20538;51.528;9.942;2023-07-28T11:08:21;2.60;;;2.17;;
34278;SDS011;20538;51.528;9.942;2023-07-28T11:10:47;4.85;;;1.90;;
34278;SDS011;20538;51.528;9.942;2023-07-28T11:13:13;3.50;;;1.92;;
34278;SDS011;20538;51.528;9.942;2023-07-28T11:15:39;2.40;;;1.92;;
34278;SDS011;20538;51.528;9.942;2023-07-28T11:18:05;3.47;;;2.17;;
34278;SDS011;20538;51.528;9.942;2023-07-28T11:20:31;3.95;;;2.25;;
34278;SDS011;20538;51.528;9.942;2023-07-28T11:22:59;3.20;;;1.70;;
34278;SDS011;20538;51.528;9.942;2023-07-28T11:25:29;4.20;;;2.05;;
34278;SDS011;20538;51.528;9.942;2023-07-28T11:27:56;2.10;;;1.90;;
34278;SDS011;20538;51.528;9.942;2023-07-28T11:30:22;2.75;;;2.20;;
34278;SDS011;20538;51.528;9.942;2023-07-28T11:32:50;5.63;;;2.40;;
34278;SDS011;20538;51.528;9.942;2023-07-28T11:35:17;5.30;;;2.35;;
34278;SDS011;20538;51.528;9.942;2023-07-28T11:37:48;2.80;;;2.10;;
34278;SDS011;20538;51.528;9.942;2023-07-28T11:40:16;2.15;;;1.63;;
34278;SDS011;20538;51.528;9.942;2023-07-28T11:42:53;2.78;;;2.50;;
34278;SDS011;20538;51.528;9.942;2023-07-28T11:45:20;2.13;;;1.92;;
34278;SDS011;20538;51.528;9.942;2023-07-28T11:47:57;2.60;;;2.10;;
34278;SDS011;20538;51.528;9.942;2023-07-28T11:50:28;2.72;;;2.00;;
34278;SDS011;20538;51.528;9.942;2023-07-28T11:52:56;3.40;;;2.03;;
34278;SDS011;20538;51.528;9.942;2023-07-28T11:55:24;2.60;;;2.03;;
34278;SDS011;20538;51.528;9.942;2023-07-28T11:57:51;2.40;;;2.20;;
34278;SDS011;20538;51.528;9.942;2023-07-28T12:00:17;2.67;;;2.28;;
34278;SDS011;20538;51.528;9.942;2023-07-28T12:03:10;1.90;;;1.63;;
34278;SDS011;20538;51.528;9.942;2023-07-28T12:05:40;2.55;;;1.88;;
34278;SDS011;20538;51.528;9.942;2023-07-28T12:08:07;2.40;;;1.83;;
34278;SDS011;20538;51.528;9.942;2023-07-28T12:10:33;2.47;;;2.10;;
34278;SDS011;20538;51.528;9.942;2023-07-28T12:13:06;4.10;;;2.22;;
34278;SDS011;20538;51.528;9.942;2023-07-28T12:15:33;3.15;;;2.17;;
34278;SDS011;20538;51.528;9.942;2023-07-28T12:18:04;2.70;;;1.90;;
34278;SDS011;20538;51.528;9.942;2023-07-28T12:20:44;2.88;;;2.33;;
34278;SDS011;20538;51.528;9.942;2023-07-28T12:23:17;2.85;;;2.13;;
34278;SDS011;20538;51.528;9.942;2023-07-28T12:25:44;2.00;;;1.73;;
34278;SDS011;20538;51.528;9.942;2023-07-28T12:28:10;2.42;;;1.83;;
34278;SDS011;20538;51.528;9.942;2023-07-28T12:30:36;2.53;;;2.30;;
34278;SDS011;20538;51.528;9.942;2023-07-28T12:33:03;4.93;;;1.92;;
34278;SDS011;20538;51.528;9.942;2023-07-28T12:35:29;5.13;;;2.05;;
34278;SDS011;20538;51.528;9.942;2023-07-28T12:38:00;2.35;;;1.98;;
34278;SDS011;20538;51.528;9.942;2023-07-28T12:40:27;1.80;;;1.70;;
34278;SDS011;20538;51.528;9.942;2023-07-28T12:42:54;1.83;;;1.67;;
34278;SDS011;20538;51.528;9.942;2023-07-28T12:45:20;3.38;;;2.10;;
34278;SDS011;20538;51.528;9.942;2023-07-28T12:47:46;3.95;;;1.55;;
34278;SDS011;20538;51.528;9.942;2023-07-28T12:50:12;1.90;;;1.80;;
34278;SDS011;20538;51.528;9.942;2023-07-28T12:52:37;2.50;;;2.30;;
34278;SDS011;20538;51.528;9.942;2023-07-28T12:55:03;3.55;;;2.60;;
34278;SDS011;20538;51.528;9.942;2023-07-28T12:57:30;2.25;;;2.05;;
34278;SDS011;20538;51.528;9.942;2023-07-28T12:59:56;2.42;;;2.22;;
34278;SDS011;20538;51.528;9.942;2023-07-28T13:02:22;3.35;;;2.30;;
34278;SDS011;20538;51.528;9.942;2023-07-28T13:04:47;2.83;;;2.30;;
34278;SDS011;20538;51.528;9.942;2023-07-28T13:07:13;3.17;;;2.88;;
34278;SDS011;20538;51.528;9.942;2023-07-28T13:09:39;3.22;;;2.42;;
34278;SDS011;20538;51.528;9.942;2023-07-28T13:12:08;2.78;;;1.60;;
34278;SDS011;20538;51.528;9.942;2023-07-28T13:14:34;4.10;;;1.90;;
34278;SDS011;20538;51.528;9.942;2023-07-28T13:17:00;2.20;;;1.80;;
34278;SDS011;20538;51.528;9.942;2023-07-28T13:19:26;2.80;;;2.10;;
34278;SDS011;20538;51.528;9.942;2023-07-28T13:21:52;2.35;;;1.80;;
34278;SDS011;20538;51.528;9.942;2023-07-28T13:24:18;2.47;;;1.92;;
34278;SDS011;20538;51.528;9.942;2023-07-28T13:26:43;2.42;;;2.03;;
34278;SDS011;20538;51.528;9.942;2023-07-28T13:29:09;2.45;;;2.00;;
34278;SDS011;20538;51.528;9.942;2023-07-28T13:31:35;4.10;;;1.70;;
34278;SDS011;20538;51.528;9.942;2023-07-28T13:34:01;1.98;;;1.80;;
34278;SDS011;20538;51.528;9.942;2023-07-28T13:36:27;2.28;;;1.90;;
34278;SDS011;20538;51.528;9.942;2023-07-28T13:38:53;3.45;;;1.95;;
34278;SDS011;20538;51.528;9.942;2023-07-28T13:41:18;2.22;;;2.00;;
34278;SDS011;20538;51.528;9.942;2023-07-28T13:43:44;2.10;;;1.90;;
34278;SDS011;20538;51.528;9.942;2023-07-28T13:46:10;2.92;;;2.33;;
34278;SDS011;20538;51.528;9.942;2023-07-28T13:48:36;3.15;;;2.17;;
34278;SDS011;20538;51.528;9.942;2023-07-28T13:51:04;4.40;;;2.10;;
34278;SDS011;20538;51.528;9.942;2023-07-28T13:53:30;3.38;;;2.53;;
34278;SDS011;20538;51.528;9.942;2023-07-28T13:55:55;2.33;;;2.00;;
34278;SDS011;20538;51.528;9.942;2023-07-28T13:58:21;5.70;;;2.65;;
34278;SDS011;20538;51.528;9.942;2023-07-28T14:00:47;5.35;;;2.60;;
34278;SDS011;20538;51.528;9.942;2023-07-28T14:03:12;5.03;;;2.10;;
34278;SDS011;20538;51.528;9.942;2023-07-28T14:05:39;4.63;;;2.22;;
34278;SDS011;20538;51.528;9.942;2023-07-28T14:08:05;3.72;;;1.88;;
34278;SDS011;20538;51.528;9.942;2023-07-28T14:10:30;6.88;;;2.28;;
34278;SDS011;20538;51.528;9.942;2023-07-28T14:12:57;4.80;;;2.20;;
34278;SDS011;20538;51.528;9.942;2023-07-28T14:15:23;4.53;;;1.98;;
34278;SDS011;20538;51.528;9.942;2023-07-28T14:17:49;4.82;;;1.95;;
34278;SDS011;20538;51.528;9.942;2023-07-28T14:20:14;2.60;;;2.05;;
34278;SDS011;20538;51.528;9.942;2023-07-28T14:22:40;2.95;;;1.90;;
34278;SDS011;20538;51.528;9.942;2023-07-28T14:25:06;6.53;;;2.40;;
34278;SDS011;20538;51.528;9.942;2023-07-28T14:27:32;2.88;;;2.03;;
34278;SDS011;20538;51.528;9.942;2023-07-28T14:29:58;3.55;;;2.10;;
34278;SDS011;20538;51.528;9.942;2023-07-28T14:32:24;2.05;;;1.92;;
34278;SDS011;20538;51.528;9.942;2023-07-28T14:34:50;1.70;;;1.60;;
34278;SDS011;20538;51.528;9.942;2023-07-28T14:37:16;2.33;;;1.80;;
34278;SDS011;20538;51.528;9.942;2023-07-28T14:39:42;2.35;;;2.15;;
34278;SDS011;20538;51.528;9.942;2023-07-28T14:42:08;4.57;;;1.90;;
34278;SDS011;20538;51.528;9.942;2023-07-28T14:44:33;3.97;;;2.10;;
34278;SDS011;20538;51.528;9.942;2023-07-28T14:46:59;5.75;;;2.15;;
34278;SDS011;20538;51.528;9.942;2023-07-28T14:49:24;7.00;;;2.38;;
34278;SDS011;20538;51.528;9.942;2023-07-28T14:51:56;4.43;;;2.72;;
34278;SDS011;20538;51.528;9.942;2023-07-28T14:54:21;4.88;;;2.80;;
34278;SDS011;20538;51.528;9.942;2023-07-28T14:56:47;5.03;;;2.38;;